createdAt,value
2019-02-15T00:01:35.430Z,16.20
2019-02-15T00:04:02.203Z,13.22
2019-02-15T00:06:28.916Z,16.60
2019-02-15T00:08:55.625Z,14.70
2019-02-15T00:11:22.308Z,13.90
2019-02-15T00:13:49.116Z,23.77
2019-02-15T00:16:16.039Z,19.87
2019-02-15T00:18:49.131Z,16.93
2019-02-15T00:21:18.135Z,19.67
2019-02-15T00:23:44.847Z,16.77
2019-02-15T00:26:11.552Z,16.80
2019-02-15T00:28:38.267Z,15.85
2019-02-15T00:31:06.068Z,17.73
2019-02-15T00:33:32.762Z,18.23
2019-02-15T00:35:59.463Z,19.05
2019-02-15T00:38:26.171Z,16.35
2019-02-15T00:40:52.870Z,15.65
2019-02-15T00:43:22.242Z,15.10
2019-02-15T00:45:59.448Z,12.65
2019-02-15T00:48:26.143Z,14.98
2019-02-15T00:51:02.259Z,15.68
2019-02-15T00:53:43.764Z,14.30
2019-02-15T00:56:28.501Z,14.07
2019-02-15T00:59:12.898Z,14.78
2019-02-15T01:01:57.955Z,14.28
2019-02-15T01:04:48.135Z,12.88
2019-02-15T01:07:36.943Z,12.33
2019-02-15T01:10:16.635Z,14.70
2019-02-15T01:12:52.916Z,16.73
2019-02-15T01:15:19.711Z,13.75
2019-02-15T01:17:46.424Z,12.90
2019-02-15T01:20:13.105Z,14.40
2019-02-15T01:22:39.810Z,15.08
2019-02-15T01:25:06.719Z,13.80
2019-02-15T01:27:51.708Z,12.70
2019-02-15T01:30:36.472Z,16.62
2019-02-15T01:33:12.702Z,18.35
2019-02-15T01:35:51.225Z,13.25
2019-02-15T01:38:40.321Z,13.60
2019-02-15T01:41:29.572Z,17.45
2019-02-15T01:44:15.852Z,14.50
2019-02-15T01:46:49.038Z,13.53
2019-02-15T01:49:15.746Z,12.45
2019-02-15T01:51:42.455Z,13.83
2019-02-15T01:54:09.155Z,14.18
2019-02-15T01:56:35.859Z,12.90
2019-02-15T01:59:02.576Z,14.00
2019-02-15T02:01:29.683Z,12.93
2019-02-15T02:03:56.367Z,21.30
2019-02-15T02:06:23.079Z,13.03
2019-02-15T02:08:49.786Z,13.70
2019-02-15T02:11:16.583Z,14.30
2019-02-15T02:13:49.298Z,13.00
2019-02-15T02:16:11.911Z,12.23
2019-02-15T02:18:38.611Z,14.95
2019-02-15T02:21:05.315Z,12.93
2019-02-15T02:23:32.021Z,15.28
2019-02-15T02:25:58.744Z,13.00
2019-02-15T02:28:25.451Z,13.00
2019-02-15T02:30:52.161Z,15.05
2019-02-15T02:33:18.855Z,15.93
2019-02-15T02:35:45.654Z,14.53
2019-02-15T02:38:12.358Z,12.63
2019-02-15T02:40:39.048Z,14.93
2019-02-15T02:43:05.767Z,15.45
2019-02-15T02:45:32.478Z,14.07
2019-02-15T02:47:59.332Z,18.77
2019-02-15T02:50:26.096Z,15.10
2019-02-15T02:52:52.806Z,14.28
2019-02-15T02:55:19.509Z,14.65
2019-02-15T02:57:46.232Z,14.03
2019-02-15T03:00:13.129Z,15.72
2019-02-15T03:02:39.824Z,15.90
2019-02-15T03:05:06.657Z,15.85
2019-02-15T03:07:33.429Z,16.23
2019-02-15T03:10:00.277Z,14.10
2019-02-15T03:12:27.072Z,14.33
2019-02-15T03:14:53.767Z,14.30
2019-02-15T03:17:20.471Z,15.23
2019-02-15T03:19:47.167Z,19.87
2019-02-15T03:22:13.899Z,15.80
2019-02-15T03:24:40.611Z,15.45
2019-02-15T03:27:07.326Z,14.45
2019-02-15T03:29:34.032Z,12.30
2019-02-15T03:32:00.747Z,15.72
2019-02-15T03:34:27.436Z,13.70
2019-02-15T03:37:16.673Z,15.05
2019-02-15T03:39:55.660Z,12.73
2019-02-15T03:42:22.791Z,13.65
2019-02-15T03:44:49.507Z,14.35
2019-02-15T03:47:22.304Z,12.15
2019-02-15T03:49:49.023Z,14.45
2019-02-15T03:52:15.732Z,16.57
2019-02-15T03:54:42.539Z,16.70
2019-02-15T03:57:09.250Z,13.70
2019-02-15T03:59:36.657Z,13.35
2019-02-15T04:02:03.567Z,15.68
2019-02-15T04:04:30.259Z,16.95
2019-02-15T04:06:56.958Z,17.70
2019-02-15T04:09:23.662Z,11.68
2019-02-15T04:11:50.373Z,15.70
2019-02-15T04:14:17.079Z,16.12
2019-02-15T04:16:43.777Z,14.83
2019-02-15T04:19:10.481Z,12.33
2019-02-15T04:21:37.184Z,19.65
2019-02-15T04:24:04.170Z,16.50
2019-02-15T04:26:30.863Z,14.00
2019-02-15T04:28:57.577Z,13.65
2019-02-15T04:31:24.291Z,13.43
2019-02-15T04:33:50.987Z,18.27
2019-02-15T04:36:17.691Z,14.73
2019-02-15T04:38:44.833Z,13.55
2019-02-15T04:41:11.600Z,12.98
2019-02-15T04:43:38.315Z,13.78
2019-02-15T04:46:05.028Z,14.40
2019-02-15T04:48:31.730Z,14.43
2019-02-15T04:50:58.436Z,14.85
2019-02-15T04:53:25.140Z,13.30
2019-02-15T04:55:52.100Z,13.32
2019-02-15T04:58:18.820Z,13.18
2019-02-15T05:00:45.517Z,13.38
2019-02-15T05:03:12.208Z,11.55
2019-02-15T05:05:38.898Z,13.28
2019-02-15T05:08:05.594Z,12.33
2019-02-15T05:10:32.288Z,15.80
2019-02-15T05:12:59.031Z,13.68
2019-02-15T05:15:25.788Z,12.50
2019-02-15T05:17:52.499Z,12.18
2019-02-15T05:20:19.203Z,11.25
2019-02-15T05:22:45.900Z,14.80
2019-02-15T05:25:12.616Z,18.27
2019-02-15T05:27:39.327Z,12.75
2019-02-15T05:30:14.719Z,13.53
2019-02-15T05:32:41.417Z,15.95
2019-02-15T05:35:08.135Z,11.97
2019-02-15T05:37:34.830Z,13.30
2019-02-15T05:40:01.642Z,11.78
2019-02-15T05:42:28.359Z,13.18
2019-02-15T05:45:03.402Z,11.30
2019-02-15T05:47:23.653Z,17.60
2019-02-15T05:49:50.347Z,13.90
2019-02-15T05:52:17.467Z,16.30
2019-02-15T05:54:44.175Z,12.63
2019-02-15T05:57:10.887Z,12.43
2019-02-15T05:59:37.705Z,11.80
2019-02-15T06:02:04.404Z,10.85
2019-02-15T06:04:31.109Z,12.47
2019-02-15T06:06:57.803Z,13.83
2019-02-15T06:09:24.502Z,10.25
2019-02-15T06:11:51.207Z,12.58
2019-02-15T06:14:17.918Z,13.72
2019-02-15T06:16:44.620Z,13.80
2019-02-15T06:19:11.324Z,16.62
2019-02-15T06:21:38.031Z,15.58
2019-02-15T06:24:04.740Z,13.88
2019-02-15T06:26:31.452Z,13.50
2019-02-15T06:28:58.143Z,15.88
2019-02-15T06:31:24.845Z,15.65
2019-02-15T06:33:51.539Z,13.58
2019-02-15T06:36:18.227Z,11.75
2019-02-15T06:38:44.937Z,12.03
2019-02-15T06:41:12.417Z,12.30
2019-02-15T06:43:39.549Z,15.30
2019-02-15T06:46:06.263Z,11.90
2019-02-15T06:48:32.958Z,14.25
2019-02-15T06:51:00.055Z,11.70
2019-02-15T06:53:26.744Z,13.00
2019-02-15T06:55:53.455Z,15.95
2019-02-15T06:58:20.151Z,15.05
2019-02-15T07:01:00.046Z,15.93
2019-02-15T07:03:37.920Z,14.78
2019-02-15T07:06:04.719Z,15.60
2019-02-15T07:08:31.524Z,15.25
2019-02-15T07:10:58.242Z,19.60
2019-02-15T07:13:24.943Z,15.15
2019-02-15T07:15:52.041Z,13.70
2019-02-15T07:18:18.736Z,15.60
2019-02-15T07:20:45.439Z,19.45
2019-02-15T07:23:12.155Z,16.17
2019-02-15T07:25:38.901Z,14.38
2019-02-15T07:28:05.708Z,17.25
2019-02-15T07:30:32.418Z,12.65
2019-02-15T07:32:59.111Z,14.50
2019-02-15T07:35:25.815Z,16.55
2019-02-15T07:37:52.526Z,15.98
2019-02-15T07:40:19.225Z,14.45
2019-02-15T07:42:45.928Z,15.05
2019-02-15T07:45:12.623Z,14.93
2019-02-15T07:47:39.336Z,14.53
2019-02-15T07:50:08.467Z,14.65
2019-02-15T07:52:35.177Z,12.78
2019-02-15T07:55:01.979Z,11.30
2019-02-15T07:57:28.918Z,12.82
2019-02-15T07:59:55.635Z,17.00
2019-02-15T08:02:22.352Z,16.45
2019-02-15T08:04:49.059Z,12.07
2019-02-15T08:07:15.759Z,13.10
2019-02-15T08:09:42.789Z,12.55
2019-02-15T08:12:09.492Z,13.13
2019-02-15T08:14:36.307Z,12.65
2019-02-15T08:17:03.120Z,11.45
2019-02-15T08:19:29.843Z,11.85
2019-02-15T08:21:56.548Z,12.90
2019-02-15T08:24:23.273Z,11.43
2019-02-15T08:26:49.999Z,10.68
2019-02-15T08:29:16.719Z,12.55
2019-02-15T08:31:43.442Z,10.90
2019-02-15T08:34:10.156Z,13.20
2019-02-15T08:36:36.862Z,9.33
2019-02-15T08:39:05.997Z,13.62
2019-02-15T08:41:32.723Z,12.30
2019-02-15T08:43:59.449Z,14.43
2019-02-15T08:46:26.156Z,12.50
2019-02-15T08:48:52.860Z,10.48
2019-02-15T08:51:19.575Z,14.40
2019-02-15T08:53:46.392Z,11.93
2019-02-15T08:56:13.092Z,12.90
2019-02-15T08:58:39.791Z,12.63
2019-02-15T09:01:06.502Z,10.40
2019-02-15T09:03:33.203Z,10.83
2019-02-15T09:05:59.907Z,10.27
2019-02-15T09:08:26.599Z,12.03
2019-02-15T09:10:53.296Z,11.47
2019-02-15T09:13:20.013Z,10.17
2019-02-15T09:15:46.712Z,14.23
2019-02-15T09:18:13.415Z,13.27
2019-02-15T09:20:40.115Z,15.83
2019-02-15T09:23:06.829Z,12.23
2019-02-15T09:25:33.527Z,9.03
2019-02-15T09:28:19.907Z,11.90
2019-02-15T09:30:50.601Z,13.20
2019-02-15T09:33:17.303Z,10.87
2019-02-15T09:35:44.115Z,12.53
2019-02-15T09:38:11.238Z,10.60
2019-02-15T09:40:37.938Z,10.93
2019-02-15T09:43:04.663Z,10.37
2019-02-15T09:45:32.882Z,15.33
2019-02-15T09:48:00.076Z,9.83
2019-02-15T09:50:26.780Z,8.73
2019-02-15T09:52:53.497Z,11.93
2019-02-15T09:55:20.220Z,8.87
2019-02-15T09:57:46.948Z,9.37
2019-02-15T10:00:13.666Z,10.57
2019-02-15T10:02:40.695Z,11.83
2019-02-15T10:05:07.515Z,9.50
2019-02-15T10:07:34.339Z,10.37
2019-02-15T10:10:01.255Z,8.37
2019-02-15T10:12:27.976Z,9.50
2019-02-15T10:14:54.679Z,9.60
2019-02-15T10:17:21.385Z,12.07
2019-02-15T10:19:48.125Z,9.97
2019-02-15T10:22:14.837Z,7.00
2019-02-15T10:24:41.561Z,12.33
2019-02-15T10:27:08.355Z,7.53
2019-02-15T10:29:35.315Z,7.77
2019-02-15T10:32:02.225Z,9.13
2019-02-15T10:34:29.051Z,5.00
2019-02-15T10:36:55.755Z,6.80
2019-02-15T10:39:22.490Z,7.53
2019-02-15T10:41:49.264Z,5.83
2019-02-15T10:44:16.037Z,5.33
2019-02-15T10:46:42.724Z,7.87
2019-02-15T10:49:09.436Z,8.87
2019-02-15T10:51:36.141Z,5.77
2019-02-15T10:54:02.939Z,5.50
2019-02-15T10:56:29.743Z,6.37
2019-02-15T10:58:56.451Z,6.43
2019-02-15T11:01:23.155Z,5.50
2019-02-15T11:03:49.873Z,5.50
2019-02-15T11:06:16.791Z,8.77
2019-02-15T11:08:43.545Z,6.53
2019-02-15T11:11:10.287Z,4.67
2019-02-15T11:13:36.987Z,4.40
2019-02-15T11:16:03.696Z,6.83
2019-02-15T11:18:30.412Z,6.70
2019-02-15T11:20:57.112Z,6.60
2019-02-15T11:23:23.823Z,5.83
2019-02-15T11:25:50.647Z,6.73
2019-02-15T11:28:17.360Z,5.27
2019-02-15T11:30:44.084Z,5.47
2019-02-15T11:33:10.821Z,6.30
2019-02-15T11:35:37.540Z,6.13
2019-02-15T11:38:04.333Z,4.73
2019-02-15T11:40:31.070Z,5.97
2019-02-15T11:42:57.848Z,5.47
2019-02-15T11:45:24.823Z,5.60
2019-02-15T11:47:51.763Z,4.20
2019-02-15T11:50:18.520Z,4.93
2019-02-15T11:52:45.243Z,4.67
2019-02-15T11:55:12.157Z,5.37
2019-02-15T11:57:38.966Z,6.63
2019-02-15T12:00:14.378Z,7.03
2019-02-15T12:02:36.773Z,5.67
2019-02-15T12:05:04.104Z,4.97
2019-02-15T12:07:30.809Z,7.40
2019-02-15T12:09:57.507Z,7.53
2019-02-15T12:12:24.210Z,3.97
2019-02-15T12:14:50.908Z,5.87
2019-02-15T12:17:17.605Z,4.83
2019-02-15T12:19:44.324Z,4.10
2019-02-15T12:22:11.035Z,5.37
2019-02-15T12:24:37.739Z,4.93
2019-02-15T12:27:04.467Z,7.23
2019-02-15T12:29:31.168Z,4.33
2019-02-15T12:31:57.876Z,5.60
2019-02-15T12:34:24.589Z,4.80
2019-02-15T12:36:51.284Z,6.90
2019-02-15T12:39:17.996Z,6.17
2019-02-15T12:41:44.692Z,4.17
2019-02-15T12:44:11.397Z,4.70
2019-02-15T12:46:38.091Z,4.87
2019-02-15T12:49:04.808Z,5.70
2019-02-15T12:51:31.627Z,6.80
2019-02-15T12:53:58.347Z,6.10
2019-02-15T12:56:25.323Z,5.63
2019-02-15T12:58:52.019Z,8.47
2019-02-15T13:01:18.732Z,8.30
2019-02-15T13:03:45.436Z,6.30
2019-02-15T13:06:12.147Z,5.30
2019-02-15T13:08:38.836Z,5.50
2019-02-15T13:11:05.848Z,3.97
2019-02-15T13:13:32.571Z,6.23
2019-02-15T13:15:59.284Z,7.63
2019-02-15T13:18:25.986Z,6.13
2019-02-15T13:20:52.786Z,6.07
2019-02-15T13:23:19.475Z,5.97
2019-02-15T13:25:46.180Z,4.50
2019-02-15T13:28:12.976Z,5.07
2019-02-15T13:30:39.700Z,4.10
2019-02-15T13:33:06.415Z,6.23
2019-02-15T13:35:33.120Z,4.73
2019-02-15T13:37:59.829Z,5.33
2019-02-15T13:40:26.535Z,5.93
2019-02-15T13:42:53.240Z,4.60
2019-02-15T13:45:19.953Z,6.57
2019-02-15T13:47:46.666Z,7.07
2019-02-15T13:50:13.472Z,6.93
2019-02-15T13:52:40.290Z,3.57
2019-02-15T13:55:07.682Z,4.80
2019-02-15T13:57:34.379Z,5.23
2019-02-15T14:00:01.209Z,7.77
2019-02-15T14:02:27.923Z,5.90
2019-02-15T14:04:54.628Z,5.43
2019-02-15T14:07:21.332Z,7.50
2019-02-15T14:09:48.077Z,4.77
2019-02-15T14:12:14.884Z,5.40
2019-02-15T14:14:41.673Z,7.90
2019-02-15T14:17:08.380Z,5.17
2019-02-15T14:19:35.089Z,4.03
2019-02-15T14:22:01.899Z,5.53
2019-02-15T14:24:28.628Z,7.10
2019-02-15T14:26:55.352Z,7.83
2019-02-15T14:29:22.063Z,7.23
2019-02-15T14:31:48.784Z,6.00
2019-02-15T14:34:15.499Z,4.20
2019-02-15T14:36:42.199Z,5.23
2019-02-15T14:39:11.133Z,9.13
2019-02-15T14:41:38.012Z,7.20
2019-02-15T14:44:04.711Z,8.70
2019-02-15T14:46:31.427Z,4.97
2019-02-15T14:48:58.144Z,5.23
2019-02-15T14:51:24.843Z,7.27
2019-02-15T14:53:51.551Z,7.23
2019-02-15T14:56:18.257Z,5.30
2019-02-15T14:58:44.975Z,6.00
2019-02-15T15:01:11.679Z,5.23
2019-02-15T15:03:38.380Z,7.37
2019-02-15T15:06:05.091Z,4.17
2019-02-15T15:08:31.799Z,5.87
2019-02-15T15:10:58.587Z,5.47
2019-02-15T15:13:25.636Z,5.93
2019-02-15T15:15:52.343Z,7.20
2019-02-15T15:18:19.058Z,7.50
2019-02-15T15:20:45.819Z,6.30
2019-02-15T15:23:12.795Z,5.20
2019-02-15T15:25:39.491Z,8.87
2019-02-15T15:28:06.204Z,7.77
2019-02-15T15:30:32.904Z,7.10
2019-02-15T15:32:59.774Z,6.47
2019-02-15T15:35:26.607Z,5.33
2019-02-15T15:37:53.324Z,6.77
2019-02-15T15:40:20.031Z,5.97
2019-02-15T15:42:46.736Z,5.07
2019-02-15T15:45:13.852Z,5.80
2019-02-15T15:47:40.559Z,6.60
2019-02-15T15:50:08.111Z,7.97
2019-02-15T15:52:34.944Z,4.60
2019-02-15T15:55:01.864Z,5.60
2019-02-15T15:57:28.568Z,6.93
2019-02-15T15:59:55.282Z,6.53
2019-02-15T16:02:21.995Z,6.97
2019-02-15T16:04:48.696Z,5.50
2019-02-15T16:07:15.403Z,6.17
2019-02-15T16:09:42.211Z,10.57
2019-02-15T16:12:09.016Z,7.53
2019-02-15T16:14:35.715Z,6.10
2019-02-15T16:17:02.428Z,6.73
2019-02-15T16:19:29.138Z,11.67
2019-02-15T16:21:55.832Z,5.77
2019-02-15T16:24:22.639Z,7.47
2019-02-15T16:27:22.076Z,7.83
2019-02-15T16:29:48.814Z,6.37
2019-02-15T16:32:15.544Z,11.90
2019-02-15T16:34:42.252Z,6.57
2019-02-15T16:37:09.335Z,12.87
2019-02-15T16:39:36.378Z,11.30
2019-02-15T16:42:03.094Z,8.00
2019-02-15T16:44:30.004Z,7.70
2019-02-15T16:46:56.816Z,8.93
2019-02-15T16:49:23.518Z,5.43
2019-02-15T16:51:50.300Z,6.33
2019-02-15T16:54:17.038Z,6.13
2019-02-15T16:56:43.806Z,5.20
2019-02-15T16:59:10.529Z,7.70
2019-02-15T17:01:37.348Z,5.20
2019-02-15T17:04:04.172Z,5.80
2019-02-15T17:06:31.096Z,6.37
2019-02-15T17:08:58.060Z,10.47
2019-02-15T17:11:24.877Z,13.20
2019-02-15T17:13:51.584Z,8.83
2019-02-15T17:16:18.334Z,10.17
2019-02-15T17:18:51.395Z,11.23
2019-02-15T17:21:13.658Z,13.03
2019-02-15T17:23:40.468Z,16.43
2019-02-15T17:26:07.202Z,11.23
2019-02-15T17:28:33.916Z,11.50
2019-02-15T17:31:00.632Z,13.53
2019-02-15T17:33:27.348Z,10.00
2019-02-15T17:35:55.071Z,12.57
2019-02-15T17:38:22.181Z,10.33
2019-02-15T17:40:48.891Z,14.23
2019-02-15T17:43:15.628Z,7.27
2019-02-15T17:45:42.438Z,8.87
2019-02-15T17:48:10.564Z,13.03
2019-02-15T17:50:37.615Z,12.60
2019-02-15T17:53:04.315Z,8.53
2019-02-15T17:55:31.019Z,11.53
2019-02-15T17:57:57.714Z,8.67
2019-02-15T18:00:28.398Z,10.90
2019-02-15T18:02:55.100Z,8.17
2019-02-15T18:05:21.797Z,9.17
2019-02-15T18:07:48.718Z,8.40
2019-02-15T18:10:15.610Z,7.90
2019-02-15T18:12:42.324Z,8.00
2019-02-15T18:15:09.462Z,9.30
2019-02-15T18:17:36.159Z,9.37
2019-02-15T18:20:03.359Z,9.47
2019-02-15T18:22:30.047Z,11.03
2019-02-15T18:24:56.748Z,8.87
2019-02-15T18:27:23.435Z,6.63
2019-02-15T18:29:50.391Z,7.37
2019-02-15T18:32:17.783Z,6.60
2019-02-15T18:34:44.575Z,7.77
2019-02-15T18:37:11.284Z,7.73
2019-02-15T18:39:37.996Z,8.37
2019-02-15T18:42:04.709Z,9.23
2019-02-15T18:44:31.408Z,10.47
2019-02-15T18:46:58.120Z,12.10
2019-02-15T18:49:25.264Z,7.93
2019-02-15T18:51:51.971Z,11.00
2019-02-15T18:54:18.686Z,8.33
2019-02-15T18:56:45.484Z,11.43
2019-02-15T18:59:12.264Z,7.80
2019-02-15T19:01:38.980Z,11.53
2019-02-15T19:04:05.712Z,10.03
2019-02-15T19:06:32.411Z,7.17
2019-02-15T19:08:59.135Z,9.80
2019-02-15T19:11:25.851Z,8.83
2019-02-15T19:13:52.665Z,9.97
2019-02-15T19:16:19.371Z,10.50
2019-02-15T19:18:46.090Z,12.53
2019-02-15T19:21:12.894Z,11.70
2019-02-15T19:23:40.031Z,12.20
2019-02-15T19:26:06.747Z,15.87
2019-02-15T19:28:33.481Z,13.60
2019-02-15T19:31:00.406Z,14.10
2019-02-15T19:33:27.109Z,13.67
2019-02-15T19:35:53.799Z,14.27
2019-02-15T19:38:20.507Z,14.80
2019-02-15T19:40:47.346Z,13.50
2019-02-15T19:43:14.055Z,15.47
2019-02-15T19:45:40.849Z,17.20
2019-02-15T19:48:07.557Z,15.37
2019-02-15T19:50:34.274Z,14.93
2019-02-15T19:53:01.324Z,17.53
2019-02-15T19:55:28.024Z,14.53
2019-02-15T19:57:54.719Z,19.63
2019-02-15T20:00:21.540Z,17.97
2019-02-15T20:02:48.358Z,23.00
2019-02-15T20:05:15.168Z,19.23
2019-02-15T20:07:41.880Z,21.57
2019-02-15T20:10:11.217Z,20.43
2019-02-15T20:12:37.968Z,19.03
2019-02-15T20:15:05.583Z,23.50
2019-02-15T20:17:32.313Z,21.57
2019-02-15T20:19:59.023Z,19.20
2019-02-15T20:22:25.740Z,25.37
2019-02-15T20:24:52.455Z,22.83
2019-02-15T20:27:19.168Z,21.87
2019-02-15T20:29:49.417Z,22.03
2019-02-15T20:32:14.492Z,21.93
2019-02-15T20:34:45.276Z,20.30
2019-02-15T20:37:09.800Z,22.87
2019-02-15T20:39:36.512Z,26.70
2019-02-15T20:42:03.250Z,24.13
2019-02-15T20:44:29.943Z,24.90
2019-02-15T20:46:56.983Z,21.03
2019-02-15T20:49:23.711Z,22.63
2019-02-15T20:51:50.413Z,21.77
2019-02-15T20:54:17.103Z,23.63
2019-02-15T20:56:43.804Z,21.07
2019-02-15T20:59:10.804Z,23.27
2019-02-15T21:01:37.507Z,31.80
2019-02-15T21:04:04.223Z,24.50
2019-02-15T21:06:31.329Z,23.63
2019-02-15T21:08:58.043Z,28.60
2019-02-15T21:11:24.763Z,24.63
2019-02-15T21:13:51.835Z,25.83
2019-02-15T21:16:18.559Z,28.83
2019-02-15T21:18:45.267Z,30.80
2019-02-15T21:21:11.967Z,32.97
2019-02-15T21:23:38.671Z,34.70
2019-02-15T21:26:05.385Z,33.47
2019-02-15T21:28:32.075Z,33.23
2019-02-15T21:30:59.123Z,26.60
2019-02-15T21:33:26.261Z,29.23
2019-02-15T21:35:52.963Z,27.50
2019-02-15T21:38:19.692Z,30.17
2019-02-15T21:40:46.391Z,28.23
2019-02-15T21:43:13.099Z,28.70
2019-02-15T21:45:39.811Z,26.23
2019-02-15T21:48:06.519Z,27.10
2019-02-15T21:50:33.223Z,25.47
2019-02-15T21:52:59.923Z,24.03
2019-02-15T21:55:26.619Z,25.40
2019-02-15T21:58:01.106Z,24.10
2019-02-15T22:00:22.159Z,22.60
2019-02-15T22:02:48.857Z,21.33
2019-02-15T22:05:15.576Z,22.57
2019-02-15T22:07:42.803Z,20.10
2019-02-15T22:10:09.855Z,19.37
2019-02-15T22:12:36.559Z,20.57
2019-02-15T22:15:04.031Z,20.27
2019-02-15T22:17:30.739Z,18.93
2019-02-15T22:19:58.264Z,20.63
2019-02-15T22:22:25.264Z,21.23
2019-02-15T22:24:51.960Z,23.70
2019-02-15T22:27:18.782Z,19.27
2019-02-15T22:29:45.497Z,19.63
2019-02-15T22:32:12.199Z,21.00
2019-02-15T22:34:39.300Z,23.37
2019-02-15T22:37:06.349Z,25.07
2019-02-15T22:39:33.047Z,22.30
2019-02-15T22:41:59.753Z,25.07
2019-02-15T22:44:26.451Z,24.00
2019-02-15T22:46:53.207Z,21.47
2019-02-15T22:49:19.908Z,23.70
2019-02-15T22:51:46.987Z,20.47
2019-02-15T22:54:13.679Z,21.43
2019-02-15T22:56:40.377Z,22.43
2019-02-15T22:59:07.179Z,23.27
2019-02-15T23:01:34.208Z,28.60
2019-02-15T23:04:01.037Z,26.43
2019-02-15T23:06:27.735Z,27.57
2019-02-15T23:08:54.534Z,27.60
2019-02-15T23:11:21.345Z,27.93
2019-02-15T23:13:48.131Z,24.37
2019-02-15T23:16:15.055Z,23.47
2019-02-15T23:18:41.763Z,26.03
2019-02-15T23:21:08.569Z,24.40
2019-02-15T23:23:35.294Z,22.77
2019-02-15T23:26:02.116Z,20.77
2019-02-15T23:28:28.911Z,21.67
2019-02-15T23:30:55.721Z,19.23
2019-02-15T23:33:22.522Z,19.00
2019-02-15T23:35:49.231Z,20.80
2019-02-15T23:38:15.945Z,20.85
2019-02-15T23:40:42.751Z,22.85
2019-02-15T23:43:09.455Z,24.92
2019-02-15T23:45:36.155Z,27.50
2019-02-15T23:48:02.968Z,24.98
2019-02-15T23:50:29.994Z,21.10
2019-02-15T23:52:56.704Z,21.05
2019-02-15T23:55:23.663Z,20.30
2019-02-15T23:57:50.372Z,19.37
